Time;durP1;ratioP1;P1;durP2;ratioP2;P2;SDS_P1;SDS_P2;PMS_P1;PMS_P2;Temp;Humidity;BMP_temperature;BMP_pressure;BME280_temperature;BME280_humidity;BME280_pressure;Samples;Min_cycle;Max_cycle;Signal;HPM_P1;HPM_P2
2023/05/28 07:01:42;;;;;;;0.95;0.95;;;25.90;99.90;31.70;101942.00;;;;6309353;22;20494;-73
2023/05/28 07:04:13;;;;;;;1.38;1.27;;;26.90;99.90;26.70;101975.00;;;;6282262;22;20163;-73
2023/05/28 07:06:57;;;;;;;0.98;0.98;;;25.70;99.90;27.90;101970.00;;;;6282221;22;20659;-73
2023/05/28 07:09:41;;;;;;;8.82;0.88;;;25.10;99.90;30.60;101982.00;;;;6256476;22;20160;-72
2023/05/28 07:12:41;;;;;;;0.35;0.25;;;26.20;99.90;32.30;101952.00;;;;6282468;22;20174;-73
2023/05/28 07:15:35;;;;;;;2.58;2.15;;;27.80;99.90;29.30;101962.00;;;;6281788;22;20461;-72
2023/05/28 07:18:02;;;;;;;1.35;1.27;;;27.00;99.90;31.90;101950.00;;;;6281569;22;20190;-72
2023/05/28 07:20:28;;;;;;;0.10;0.10;;;27.50;99.90;31.20;101978.00;;;;6281918;22;20172;-73
2023/05/28 07:22:55;;;;;;;0.68;0.68;;;27.70;99.90;31.90;101957.00;;;;6256467;22;20600;-72
2023/05/28 07:25:20;;;;;;;0.20;0.20;;;27.90;99.90;29.80;101980.00;;;;6282285;22;20224;-72
2023/05/28 07:27:50;;;;;;;0.63;0.63;;;27.50;99.90;30.00;102001.00;;;;6256617;22;20180;-72
2023/05/28 07:30:23;;;;;;;0.63;0.63;;;27.30;99.90;30.90;102003.00;;;;6281553;22;20159;-72
2023/05/28 07:32:48;;;;;;;0.30;0.30;;;27.30;99.90;28.70;102012.00;;;;6258797;22;20152;-73
2023/05/28 07:35:15;;;;;;;0.38;0.38;;;26.60;99.90;28.10;102031.00;;;;6282230;22;20148;-72
2023/05/28 07:37:42;;;;;;;2.67;1.65;;;25.60;99.90;30.30;102009.00;;;;6282310;22;20577;-73
2023/05/28 07:40:08;;;;;;;1.48;1.48;;;26.60;99.90;32.50;101976.00;;;;6256456;22;20198;-73
2023/05/28 07:42:34;;;;;;;0.98;0.98;;;28.00;99.90;33.30;101989.00;;;;6256617;22;20172;-73
2023/05/28 07:45:01;;;;;;;1.48;1.20;;;28.70;99.90;31.40;102006.00;;;;6281976;22;20217;-73
2023/05/28 07:47:26;;;;;;;0.40;0.40;;;28.70;99.90;32.00;101990.00;;;;6281734;22;20205;-73
2023/05/28 07:49:55;;;;;;;0.90;0.90;;;28.20;99.90;27.70;102010.00;;;;6282118;22;20132;-72
2023/05/28 07:52:23;;;;;;;1.45;0.52;;;26.50;99.90;30.20;102011.00;;;;6256421;22;20244;-73
2023/05/28 07:54:49;;;;;;;0.30;0.30;;;26.80;99.90;28.90;102011.00;;;;6255887;22;20160;-72
2023/05/28 07:57:15;;;;;;;0.30;0.30;;;25.70;99.90;28.20;102019.00;;;;6256492;22;20159;-72
2023/05/28 07:59:42;;;;;;;1.48;1.40;;;25.70;99.90;30.10;102019.00;;;;6308631;22;20168;-73
2023/05/28 08:02:33;;;;;;;0.28;0.28;;;26.10;99.90;30.00;102013.00;;;;6256202;22;20241;-73
2023/05/28 08:05:30;;;;;;;1.08;0.65;;;26.70;99.90;29.20;102022.00;;;;6255925;22;20182;-73
2023/05/28 08:07:56;;;;;;;2.47;0.65;;;26.10;99.90;30.10;101967.00;;;;6255957;22;20389;-73
2023/05/28 08:10:22;;;;;;;1.60;1.30;;;26.60;99.90;28.40;102020.00;;;;6256141;22;20153;-72
2023/05/28 08:13:06;;;;;;;0.45;0.38;;;26.40;99.90;28.10;102024.00;;;;6281809;22;20572;-72
2023/05/28 08:15:50;;;;;;;0.90;0.73;;;25.20;99.90;25.60;102045.00;;;;6256003;22;20155;-72
2023/05/28 08:18:16;;;;;;;1.63;1.10;;;24.40;99.90;25.50;102041.00;;;;6282003;22;20572;-72
2023/05/28 08:20:45;;;;;;;1.05;0.77;;;23.80;99.90;26.30;102039.00;;;;6281213;22;20137;-72
2023/05/28 08:23:34;;;;;;;1.65;1.20;;;23.70;99.90;26.30;102039.00;;;;6281324;22;20171;-72
2023/05/28 08:26:03;;;;;;;1.10;1.02;;;23.80;99.90;26.20;102022.00;;;;6282413;22;20565;-72
2023/05/28 08:28:30;;;;;;;0.20;0.20;;;24.40;99.90;27.00;102033.00;;;;6281640;22;20144;-72
2023/05/28 08:31:17;;;;;;;0.47;0.47;;;24.00;99.90;27.40;102012.00;;;;6255465;22;20167;-72
2023/05/28 08:34:13;;;;;;;2.10;1.10;;;24.40;99.90;24.60;102045.00;;;;6284347;22;20164;-72
2023/05/28 08:36:46;;;;;;;1.60;1.15;;;23.90;99.90;24.50;102037.00;;;;6255599;22;20227;-72
2023/05/28 08:39:31;;;;;;;1.45;1.08;;;22.40;99.90;26.10;101978.00;;;;6281532;22;20141;-72
2023/05/28 08:41:56;;;;;;;0.20;0.20;;;22.80;99.90;27.20;102007.00;;;;6255822;22;20238;-72
2023/05/28 08:44:22;;;;;;;2.30;0.82;;;23.50;99.90;27.90;101975.00;;;;6281102;22;20241;-72
2023/05/28 08:46:50;;;;;;;1.25;1.15;;;24.20;99.90;27.40;101963.00;;;;6281562;22;20137;-73
2023/05/28 08:49:31;;;;;;;1.20;1.13;;;24.50;99.90;27.30;101999.00;;;;6281571;22;20564;-72
2023/05/28 08:52:04;;;;;;;1.55;0.63;;;24.10;99.90;27.50;102000.00;;;;6281363;22;20225;-72
2023/05/28 08:54:33;;;;;;;0.93;0.93;;;24.30;99.90;26.10;102002.00;;;;6307836;22;20159;-72
2023/05/28 08:57:00;;;;;;;0.28;0.20;;;24.20;99.90;26.00;102002.00;;;;6255683;22;20153;-72
2023/05/28 08:59:27;;;;;;;2.28;0.93;;;23.70;99.90;25.90;102002.00;;;;6306731;22;20175;-72
2023/05/28 09:01:53;;;;;;;0.75;0.45;;;23.80;99.90;25.40;101993.00;;;;6281534;22;20179;-73
2023/05/28 09:04:22;;;;;;;0.95;0.95;;;23.00;99.90;25.40;102017.00;;;;6255299;22;20156;-72
2023/05/28 09:06:51;;;;;;;3.25;2.00;;;23.10;99.90;25.10;102002.00;;;;6280849;22;20141;-72
2023/05/28 09:09:23;;;;;;;0.10;0.10;;;23.20;99.90;27.50;101943.00;;;;6281437;22;20137;-72
2023/05/28 09:12:12;;;;;;;2.72;1.17;;;23.90;99.90;28.20;101967.00;;;;6281342;22;20584;-72
2023/05/28 09:14:41;;;;;;;0.30;0.30;;;24.90;99.90;28.80;101965.00;;;;6255646;22;20152;-72
2023/05/28 09:17:22;;;;;;;1.15;1.08;;;25.70;99.90;26.90;101976.00;;;;6280704;22;20585;-72
2023/05/28 09:20:12;;;;;;;2.40;0.95;;;24.80;99.90;27.60;101972.00;;;;6282251;22;20159;-72
2023/05/28 09:23:08;;;;;;;0.50;0.50;;;24.70;99.90;26.50;101981.00;;;;6231431;22;20505;-72
2023/05/28 09:25:56;;;;;;;1.08;0.70;;;24.40;99.90;27.50;101965.00;;;;6281327;22;20564;-72
2023/05/28 09:28:42;;;;;;;1.92;1.17;;;25.00;99.90;27.40;101974.00;;;;6255325;22;20171;-72
2023/05/28 09:31:26;;;;;;;0.40;0.40;;;24.80;99.90;27.40;101978.00;;;;6280620;22;20161;-72
2023/05/28 09:34:10;;;;;;;0.60;0.60;;;24.80;99.90;26.60;101980.00;;;;6280861;22;20156;-72
2023/05/28 09:36:51;;;;;;;0.50;0.50;;;24.30;99.90;27.80;101960.00;;;;6280561;22;20140;-72
2023/05/28 09:39:26;;;;;;;0.98;0.65;;;24.90;99.90;27.10;101969.00;;;;6255289;22;20485;-72
2023/05/28 09:42:03;;;;;;;3.97;1.27;;;24.60;99.90;26.40;101971.00;;;;6255240;22;20176;-72
2023/05/28 09:44:34;;;;;;;2.60;2.03;;;24.40;99.90;25.50;101964.00;;;;6255293;22;20480;-72
2023/05/28 09:47:14;;;;;;;3.03;1.67;;;24.10;99.90;26.30;101968.00;;;;6280200;22;20190;-72
2023/05/28 09:50:05;;;;;;;0.20;0.20;;;23.90;99.90;26.80;101936.00;;;;6255113;22;20576;-71
2023/05/28 09:52:31;;;;;;;0.80;0.63;;;24.00;99.90;27.10;101966.00;;;;6280872;22;20152;-71
2023/05/28 09:54:59;;;;;;;0.15;0.15;;;24.40;99.90;27.10;101966.00;;;;6280544;22;20172;-71
2023/05/28 09:57:30;;;;;;;0.82;0.20;;;24.60;99.90;27.30;101961.00;;;;6280978;22;20145;-71
2023/05/28 10:00:26;;;;;;;0.52;0.52;;;24.70;99.90;28.20;101971.00;;;;6254705;22;20322;-71
2023/05/28 10:03:38;;;;;;;0.28;0.28;;;24.70;99.90;27.00;101977.00;;;;6241388;22;20333;-73
2023/05/28 10:06:13;;;;;;;0.45;0.45;;;24.70;99.90;26.50;101989.00;;;;6278603;22;20644;-73
2023/05/28 10:08:56;;;;;;;2.63;2.40;;;24.70;99.90;26.50;101980.00;;;;6280815;22;20164;-73
2023/05/28 10:11:26;;;;;;;0.38;0.38;;;24.30;99.90;26.40;101983.00;;;;6255049;22;20152;-73
2023/05/28 10:13:57;;;;;;;0.50;0.50;;;24.00;99.90;25.70;101991.00;;;;6280761;22;20156;-73
2023/05/28 10:16:25;;;;;;;2.05;1.40;;;23.90;99.90;27.20;101962.00;;;;6279994;22;20140;-73
2023/05/28 10:18:53;;;;;;;6.05;1.70;;;24.30;99.90;26.30;101970.00;;;;6255134;22;20160;-73
2023/05/28 10:33:21;;;;;;;3.30;1.85;;;25.50;99.90;26.30;101976.00;;;;5110537;27;20959;-71
2023/05/28 10:35:55;;;;;;;3.05;1.55;;;25.00;99.90;26.30;101979.00;;;;5090127;28;20242;-71
2023/05/28 10:38:22;;;;;;;0.40;0.15;;;24.50;99.90;27.60;101966.00;;;;5072407;28;20545;-71
2023/05/28 10:41:00;;;;;;;0.45;0.43;;;24.90;99.90;27.60;101959.00;;;;5089185;28;20175;-71
2023/05/28 10:43:41;;;;;;;0.95;0.68;;;25.40;99.90;27.30;101957.00;;;;5089288;28;20187;-71
2023/05/28 10:46:16;;;;;;;0.47;0.47;;;25.00;99.90;28.30;101953.00;;;;5099495;28;20210;-71
2023/05/28 10:49:03;;;;;;;1.00;0.32;;;25.60;99.90;29.00;101955.00;;;;5089012;28;20189;-71
2023/05/28 10:51:59;;;;;;;0.75;0.38;;;25.80;99.90;27.90;101956.00;;;;5105716;28;20279;-71
2023/05/28 10:54:44;;;;;;;0.40;0.40;;;26.10;99.90;28.00;101960.00;;;;5089316;28;20185;-71
2023/05/28 10:57:21;;;;;;;0.55;0.55;;;25.70;99.90;28.00;101960.00;;;;5089585;28;20176;-71
2023/05/28 10:59:52;;;;;;;2.10;1.45;;;25.60;99.90;26.60;101977.00;;;;5088757;28;20195;-71
2023/05/28 11:02:25;;;;;;;0.30;0.30;;;24.70;99.90;27.60;101963.00;;;;5088664;28;20189;-71
2023/05/28 11:05:37;;;;;;;0.13;0.13;;;24.90;99.90;28.70;101965.00;;;;5088912;28;20646;-71
2023/05/28 11:08:03;;;;;;;1.02;0.80;;;26.20;99.90;27.30;101975.00;;;;5088901;28;20181;-71
2023/05/28 11:10:30;;;;;;;8.57;2.00;;;25.70;99.90;28.70;101944.00;;;;5088619;28;20187;-72
2023/05/28 11:12:56;;;;;;;1.55;1.23;;;26.10;99.90;28.20;101956.00;;;;5088554;28;20571;-71
2023/05/28 11:15:22;;;;;;;0.52;0.52;;;26.00;99.90;29.00;101944.00;;;;5088370;28;20193;-71
2023/05/28 11:17:49;;;;;;;1.30;0.85;;;26.60;99.90;27.70;101934.00;;;;5088481;28;20189;-71
2023/05/28 11:20:31;;;;;;;1.70;1.60;;;26.00;99.90;27.50;101968.00;;;;5085273;28;20189;-71
2023/05/28 11:22:57;;;;;;;0.80;0.65;;;25.70;99.90;27.30;101952.00;;;;5099764;28;20261;-71
2023/05/28 11:25:25;;;;;;;0.20;0.20;;;25.20;99.90;28.00;101946.00;;;;5088059;28;20196;-71
2023/05/28 11:27:53;;;;;;;2.65;1.38;;;25.60;99.90;28.60;101959.00;;;;5072935;28;20188;-72
2023/05/28 11:30:20;;;;;;;1.10;0.77;;;26.30;99.90;29.80;101909.00;;;;5087936;28;20192;-72
2023/05/28 11:32:48;;;;;;;0.85;0.80;;;26.80;99.90;28.40;101959.00;;;;5071243;28;20282;-71
2023/05/28 11:35:19;;;;;;;0.20;0.20;;;26.70;99.90;29.40;101949.00;;;;5071227;28;20597;-71
2023/05/28 11:38:02;;;;;;;1.02;0.55;;;26.60;99.90;30.50;101925.00;;;;5088108;28;20219;-71
2023/05/28 11:40:34;;;;;;;3.92;0.75;;;27.60;99.90;29.80;101959.00;;;;5088229;28;20283;-72
2023/05/28 11:43:04;;;;;;;0.55;0.55;;;27.50;99.90;29.00;101976.00;;;;5071043;28;20172;-71
2023/05/28 11:45:39;;;;;;;3.15;1.23;;;26.80;99.90;28.30;101971.00;;;;5074351;28;20188;-71
2023/05/28 11:48:12;;;;;;;0.57;0.57;;;26.60;99.90;29.00;101961.00;;;;5074488;28;20177;-71
2023/05/28 11:51:00;;;;;;;2.53;1.48;;;26.20;99.90;28.60;101964.00;;;;5074280;28;20268;-71
2023/05/28 11:53:43;;;;;;;0.95;0.90;;;26.20;99.90;28.10;101927.00;;;;5057779;28;20231;-71
2023/05/28 11:56:12;;;;;;;0.40;0.40;;;25.50;99.90;28.60;101966.00;;;;5074372;28;20204;-71
2023/05/28 11:58:44;;;;;;;1.25;0.90;;;25.80;99.90;28.30;101954.00;;;;5073927;28;20235;-71
2023/05/28 12:01:15;;;;;;;0.68;0.63;;;25.90;99.90;28.10;101968.00;;;;5074339;28;20221;-71
2023/05/28 12:03:41;;;;;;;1.15;0.65;;;25.50;99.90;28.30;101968.00;;;;5074241;28;20530;-71
2023/05/28 12:06:07;;;;;;;1.65;1.48;;;25.50;99.90;28.40;101978.00;;;;5074222;28;20636;-71
2023/05/28 12:08:33;;;;;;;1.55;1.45;;;25.60;99.90;27.90;101973.00;;;;5074077;28;20182;-71
2023/05/28 12:11:04;;;;;;;0.50;0.50;;;25.50;99.90;28.80;101962.00;;;;5074288;28;20177;-71
2023/05/28 12:13:46;;;;;;;0.65;0.65;;;25.60;99.90;27.80;101967.00;;;;5057199;28;20174;-71
2023/05/28 12:16:15;;;;;;;0.50;0.50;;;25.30;99.90;28.80;101960.00;;;;5074037;28;20197;-71
2023/05/28 12:18:42;;;;;;;1.88;1.05;;;25.50;99.90;28.70;101952.00;;;;5087577;28;20182;-71
2023/05/28 12:21:20;;;;;;;0.30;0.30;;;26.00;99.90;29.50;101941.00;;;;5089181;28;20639;-71
2023/05/28 12:23:48;;;;;;;0.70;0.70;;;26.20;99.90;28.90;101948.00;;;;5073967;28;20181;-71
2023/05/28 12:26:15;;;;;;;0.60;0.60;;;26.10;99.90;28.60;101909.00;;;;5071604;28;20185;-71
2023/05/28 12:28:41;;;;;;;0.20;0.20;;;26.00;99.90;29.00;101925.00;;;;5074180;28;20205;-71
2023/05/28 12:31:08;;;;;;;0.70;0.50;;;25.80;99.90;28.40;101913.00;;;;5073792;28;20173;-71
2023/05/28 12:33:34;;;;;;;1.83;0.80;;;25.80;99.90;29.00;101950.00;;;;5071259;28;20197;-71
2023/05/28 12:36:05;;;;;;;1.20;1.08;;;26.00;99.90;27.60;101951.00;;;;5073469;28;20185;-71
2023/05/28 12:38:31;;;;;;;1.00;0.85;;;25.30;99.90;27.80;101949.00;;;;5057143;28;20189;-71
2023/05/28 12:41:13;;;;;;;0.60;0.60;;;25.30;99.90;27.60;101953.00;;;;5073422;28;20303;-71
2023/05/28 12:43:48;;;;;;;0.40;0.40;;;25.20;99.90;28.10;101944.00;;;;5073736;28;20189;-71
2023/05/28 12:46:25;;;;;;;4.57;1.83;;;25.00;99.90;27.60;101961.00;;;;5073898;28;20193;-71
2023/05/28 12:49:10;;;;;;;0.65;0.65;;;25.00;99.90;27.50;101908.00;;;;5053056;28;20192;-71
2023/05/28 12:51:54;;;;;;;0.30;0.30;;;24.90;99.90;28.10;101940.00;;;;5073300;28;20201;-71
2023/05/28 12:54:42;;;;;;;0.70;0.70;;;25.10;99.90;28.60;101932.00;;;;5072783;28;20233;-71
2023/05/28 12:57:08;;;;;;;1.05;0.95;;;25.50;99.90;27.90;101926.00;;;;5065731;28;20255;-71
2023/05/28 12:59:34;;;;;;;3.05;1.08;;;25.40;99.90;28.30;101943.00;;;;5073460;28;20213;-71
2023/05/28 13:02:17;;;;;;;0.20;0.20;;;25.60;99.90;29.00;101934.00;;;;5073110;28;20190;-71
2023/05/28 13:04:51;;;;;;;0.25;0.25;;;25.50;99.90;27.70;101938.00;;;;5073139;28;20606;-71
2023/05/28 13:07:16;;;;;;;2.83;1.20;;;25.00;99.90;27.10;101899.00;;;;5073356;28;20632;-71
2023/05/28 13:09:42;;;;;;;0.98;0.85;;;24.70;99.90;27.90;101927.00;;;;5073238;28;20203;-71
2023/05/28 13:12:08;;;;;;;0.95;0.77;;;24.70;99.90;27.70;101945.00;;;;5073173;28;20315;-71
2023/05/28 13:14:34;;;;;;;1.00;1.00;;;24.90;99.90;27.10;101943.00;;;;5072973;28;20177;-71
2023/05/28 13:17:23;;;;;;;0.38;0.38;;;24.80;99.90;27.60;101926.00;;;;5072724;28;20193;-71
2023/05/28 13:19:49;;;;;;;1.33;1.25;;;24.80;99.90;28.20;101933.00;;;;5056028;28;20658;-71
2023/05/28 13:22:15;;;;;;;7.28;2.08;;;25.30;99.90;27.30;101889.00;;;;5072807;28;20182;-71
2023/05/28 13:24:41;;;;;;;0.63;0.63;;;25.10;99.90;29.10;101930.00;;;;5072625;28;20303;-71
2023/05/28 13:27:06;;;;;;;0.25;0.25;;;25.50;99.90;28.20;101878.00;;;;5074288;28;20186;-71
2023/05/28 13:29:32;;;;;;;0.65;0.50;;;25.50;99.90;28.80;101877.00;;;;5056094;28;20203;-71
2023/05/28 13:31:59;;;;;;;2.05;1.73;;;25.70;99.90;27.30;101922.00;;;;5068832;28;20210;-71
2023/05/28 13:34:25;;;;;;;0.82;0.82;;;25.20;99.90;27.50;101888.00;;;;5086798;28;20185;-71
2023/05/28 13:36:51;;;;;;;1.67;0.75;;;24.80;99.90;27.90;101926.00;;;;5070538;28;20186;-71
2023/05/28 13:39:20;;;;;;;0.50;0.50;;;24.80;99.90;27.60;101929.00;;;;5073589;28;20205;-71
2023/05/28 13:42:05;;;;;;;0.55;0.55;;;24.80;99.90;28.00;101939.00;;;;5072129;28;20190;-71
2023/05/28 13:44:50;;;;;;;1.05;1.05;;;25.00;99.90;27.20;101930.00;;;;5074038;28;20185;-71
2023/05/28 13:47:17;;;;;;;3.33;1.33;;;24.90;99.90;26.50;101928.00;;;;5072291;28;20192;-71
2023/05/28 13:49:43;;;;;;;1.95;1.00;;;24.60;99.90;26.70;101938.00;;;;5072197;28;20585;-71
2023/05/28 13:52:10;;;;;;;0.93;0.93;;;24.60;99.90;28.60;101911.00;;;;5072381;28;20205;-71
2023/05/28 13:54:35;;;;;;;1.73;1.02;;;24.90;99.90;26.60;101879.00;;;;5072067;28;20185;-71
2023/05/28 13:57:02;;;;;;;1.10;0.73;;;24.70;99.90;27.40;101924.00;;;;5071904;28;20246;-71
2023/05/28 13:59:28;;;;;;;2.33;1.45;;;24.70;99.90;27.70;101920.00;;;;5071871;28;20220;-71
2023/05/28 14:01:54;;;;;;;2.53;2.28;;;24.90;99.90;26.70;101931.00;;;;5071855;28;20193;-71
2023/05/28 14:04:19;;;;;;;1.33;1.27;;;24.50;99.90;26.80;101918.00;;;;5073515;28;20182;-71
2023/05/28 14:06:45;;;;;;;4.18;0.95;;;24.40;99.90;26.70;101923.00;;;;5071735;28;20190;-71
2023/05/28 14:09:11;;;;;;;0.45;0.45;;;24.30;99.90;28.30;101914.00;;;;5071852;28;20250;-71
2023/05/28 14:11:37;;;;;;;1.13;1.08;;;24.70;99.90;27.40;101910.00;;;;5088625;28;20219;-71
2023/05/28 14:14:03;;;;;;;0.20;0.20;;;25.00;99.90;28.40;101932.00;;;;5073116;28;20192;-71
2023/05/28 14:16:28;;;;;;;1.50;1.20;;;25.10;99.90;27.20;101931.00;;;;5055101;28;20650;-71
2023/05/28 14:18:54;;;;;;;0.65;0.65;;;24.90;99.90;28.20;101890.00;;;;5071847;28;20641;-71
2023/05/28 14:21:20;;;;;;;0.10;0.10;;;24.90;99.90;28.40;101887.00;;;;5071721;28;20189;-71
2023/05/28 14:23:46;;;;;;;3.10;1.35;;;25.00;99.90;27.50;101893.00;;;;5071761;28;20643;-71
2023/05/28 14:26:12;;;;;;;0.20;0.20;;;24.80;99.90;28.60;101928.00;;;;5072105;28;20185;-71
2023/05/28 14:28:38;;;;;;;0.20;0.20;;;25.00;99.90;27.50;101890.00;;;;5071568;28;20185;-71
2023/05/28 14:31:04;;;;;;;1.10;1.02;;;24.90;99.90;27.20;101933.00;;;;5071542;28;20207;-71
2023/05/28 14:33:55;;;;;;;1.65;1.48;;;24.60;99.90;26.50;101926.00;;;;5071538;28;20193;-71
2023/05/28 14:36:23;;;;;;;1.02;0.65;;;24.30;99.90;27.80;101898.00;;;;5065180;28;20276;-71
2023/05/28 14:38:57;;;;;;;1.52;1.25;;;24.50;99.90;27.20;101938.00;;;;5071607;28;20196;-71
2023/05/28 14:41:23;;;;;;;0.28;0.28;;;24.50;99.90;27.60;101946.00;;;;5054694;28;20243;-71
2023/05/28 14:43:48;;;;;;;3.65;1.77;;;24.60;99.90;26.90;101941.00;;;;5071763;28;20177;-71
2023/05/28 14:46:17;;;;;;;2.53;1.20;;;24.30;99.90;26.60;101939.00;;;;5071674;28;20185;-71
2023/05/28 14:48:43;;;;;;;1.65;1.58;;;24.30;99.90;26.90;101937.00;;;;5054976;28;20181;-71
2023/05/28 14:51:11;;;;;;;2.08;0.32;;;24.20;99.90;27.00;101953.00;;;;5071447;28;20188;-71
2023/05/28 14:53:58;;;;;;;0.20;0.20;;;24.20;99.90;27.90;101936.00;;;;5071569;28;20538;-71
2023/05/28 14:56:25;;;;;;;7.30;2.22;;;24.50;99.90;26.80;101940.00;;;;5071421;28;20209;-71
2023/05/28 14:58:51;;;;;;;0.95;0.63;;;24.40;99.90;27.50;101930.00;;;;5071608;28;20162;-71
2023/05/28 15:01:18;;;;;;;1.20;0.95;;;24.40;99.90;27.30;101933.00;;;;5071294;28;20652;-71
2023/05/28 15:03:44;;;;;;;0.30;0.30;;;24.40;99.90;27.60;101917.00;;;;5088298;28;20181;-71
2023/05/28 15:06:11;;;;;;;2.70;1.92;;;24.70;99.90;27.70;101925.00;;;;5071285;28;20192;-71
2023/05/28 15:08:37;;;;;;;1.88;1.08;;;24.70;99.90;26.70;101929.00;;;;5071295;28;20197;-71
2023/05/28 15:11:03;;;;;;;0.73;0.70;;;24.50;99.90;26.60;101934.00;;;;5067374;28;20230;-71
2023/05/28 15:13:29;;;;;;;9.18;1.40;;;24.30;99.90;27.40;101939.00;;;;5071363;28;20586;-71
2023/05/28 15:15:55;;;;;;;2.13;1.00;;;24.40;99.90;27.30;101929.00;;;;5071369;28;20208;-71
2023/05/28 15:18:21;;;;;;;0.85;0.80;;;24.50;99.90;27.20;101892.00;;;;5072526;28;20185;-71
2023/05/28 15:20:47;;;;;;;1.63;1.52;;;24.50;99.90;26.60;101897.00;;;;5075696;28;20243;-71
2023/05/28 15:23:13;;;;;;;2.60;1.55;;;24.20;99.90;26.60;101928.00;;;;5083210;28;20192;-72
2023/05/28 15:25:39;;;;;;;0.17;0.17;;;24.10;99.90;27.20;101930.00;;;;5074882;28;20542;-71
2023/05/28 15:28:07;;;;;;;0.10;0.10;;;24.20;99.90;27.70;101909.00;;;;5072131;28;20224;-71
2023/05/28 15:30:34;;;;;;;2.47;1.45;;;24.50;99.90;27.20;101935.00;;;;5090837;28;20260;-71
2023/05/28 15:33:12;;;;;;;0.63;0.63;;;24.60;99.90;26.90;101928.00;;;;5074925;28;20251;-71
2023/05/28 15:35:43;;;;;;;4.80;1.85;;;24.40;99.90;27.10;101933.00;;;;5066369;28;20192;-71
2023/05/28 15:38:09;;;;;;;4.00;2.22;;;24.20;99.90;26.30;101932.00;;;;5074669;28;20277;-71
2023/05/28 15:40:36;;;;;;;3.03;1.38;;;24.10;99.90;26.70;101929.00;;;;5058337;28;20247;-71
2023/05/28 15:43:06;;;;;;;0.43;0.30;;;24.00;99.90;27.30;101938.00;;;;5074470;28;20216;-71
2023/05/28 15:45:33;;;;;;;3.53;1.95;;;24.20;99.90;26.60;101939.00;;;;5058301;28;20192;-71
2023/05/28 15:48:00;;;;;;;1.45;1.40;;;24.10;99.90;26.60;101931.00;;;;5074386;28;20193;-71
2023/05/28 15:50:30;;;;;;;2.72;1.23;;;23.90;99.90;27.00;101905.00;;;;5074569;28;20536;-71
2023/05/28 15:52:56;;;;;;;6.55;2.95;;;24.00;99.90;25.60;101940.00;;;;5074387;28;20667;-71
2023/05/28 15:55:22;;;;;;;0.65;0.45;;;23.80;99.90;25.90;101938.00;;;;5074422;28;20184;-71
2023/05/28 15:57:52;;;;;;;2.35;1.10;;;23.60;99.90;26.10;101901.00;;;;5074619;28;20189;-71
2023/05/28 16:00:19;;;;;;;0.35;0.35;;;23.60;99.90;26.40;101925.00;;;;5074136;28;20285;-71
2023/05/28 16:03:15;;;;;;;3.58;1.52;;;23.60;99.90;26.10;101935.00;;;;5075801;28;20193;-70
2023/05/28 16:05:57;;;;;;;1.33;1.20;;;23.70;99.90;26.30;101933.00;;;;5053554;28;20320;-71
2023/05/28 16:08:30;;;;;;;3.53;2.20;;;23.70;99.90;25.90;101949.00;;;;5074292;28;20181;-71
2023/05/28 16:11:18;;;;;;;0.43;0.43;;;23.60;99.90;26.60;101913.00;;;;5057080;28;20231;-70
2023/05/28 16:14:10;;;;;;;5.82;1.95;;;23.70;99.90;26.60;101936.00;;;;5074231;28;20177;-70
2023/05/28 16:16:36;;;;;;;6.57;1.88;;;23.80;99.90;26.50;101937.00;;;;5074169;28;20200;-71
2023/05/28 16:19:03;;;;;;;0.55;0.55;;;23.90;99.90;26.80;101903.00;;;;5054671;28;20182;-71
2023/05/28 16:21:30;;;;;;;1.88;1.70;;;24.00;99.90;26.60;101887.00;;;;5075695;28;20222;-70
2023/05/28 16:23:58;;;;;;;1.35;1.05;;;23.80;99.90;26.00;101944.00;;;;5057286;28;20173;-71
2023/05/28 16:26:33;;;;;;;2.60;2.28;;;23.60;99.90;26.00;101955.00;;;;5057450;28;20249;-71
2023/05/28 16:28:59;;;;;;;0.85;0.82;;;23.50;99.90;26.20;101939.00;;;;5073629;28;20177;-71
2023/05/28 16:31:31;;;;;;;1.05;1.05;;;23.50;99.90;26.70;101930.00;;;;5090265;28;20213;-71
2023/05/28 16:34:01;;;;;;;1.35;1.13;;;23.80;99.90;26.60;101940.00;;;;5073720;28;20190;-70
2023/05/28 16:36:31;;;;;;;1.02;0.73;;;23.90;99.90;27.00;101942.00;;;;5057135;28;20200;-71
2023/05/28 16:38:57;;;;;;;0.63;0.63;;;23.90;99.90;25.90;101958.00;;;;5073827;28;20184;-70
2023/05/28 16:41:24;;;;;;;5.82;1.13;;;23.50;99.90;26.00;101966.00;;;;5074138;28;20189;-71
2023/05/28 16:44:16;;;;;;;2.22;0.98;;;23.30;99.90;26.60;101946.00;;;;5073570;28;20222;-71
2023/05/28 16:47:06;;;;;;;1.50;1.40;;;23.50;99.90;25.70;101969.00;;;;5073461;28;20243;-71
2023/05/28 16:49:35;;;;;;;3.35;1.77;;;23.20;99.90;25.60;101967.00;;;;5056740;28;20180;-71
2023/05/28 16:52:02;;;;;;;2.42;1.25;;;23.20;99.90;25.30;101969.00;;;;5073048;28;20209;-71
2023/05/28 16:54:30;;;;;;;1.23;1.23;;;23.10;99.90;26.40;101953.00;;;;5061545;28;20178;-71
2023/05/28 16:56:57;;;;;;;3.00;1.55;;;23.20;99.90;25.40;101953.00;;;;5072952;28;20212;-71
2023/05/28 16:59:23;;;;;;;3.53;2.05;;;23.20;99.90;25.00;101978.00;;;;5056571;28;20185;-71
2023/05/28 17:02:12;;;;;;;6.63;1.63;;;22.90;99.90;25.20;101967.00;;;;5074317;28;20196;-71
2023/05/28 17:04:38;;;;;;;1.35;0.98;;;22.90;99.90;25.50;101955.00;;;;5085720;28;20216;-71
2023/05/28 17:07:05;;;;;;;2.35;1.45;;;22.90;99.90;25.20;101974.00;;;;5072751;28;20665;-71
2023/05/28 17:09:38;;;;;;;2.58;1.48;;;22.90;99.90;25.70;101967.00;;;;5073291;28;20185;-71
2023/05/28 17:12:05;;;;;;;1.77;0.95;;;23.00;99.90;26.40;101907.00;;;;5073404;28;20201;-71
2023/05/28 17:14:32;;;;;;;0.77;0.77;;;23.20;99.90;25.90;101915.00;;;;5073025;28;20189;-71
2023/05/28 17:16:59;;;;;;;1.25;1.00;;;23.20;99.90;24.90;101983.00;;;;5073235;28;20176;-70
2023/05/28 17:20:01;;;;;;;2.50;2.17;;;22.80;99.90;24.60;101985.00;;;;5073026;28;20182;-71
2023/05/28 17:22:29;;;;;;;3.33;1.48;;;22.40;99.90;25.60;101972.00;;;;5065853;28;20185;-71
2023/05/28 17:24:55;;;;;;;3.10;1.88;;;22.50;99.90;24.90;101982.00;;;;5071354;28;20210;-71
2023/05/28 17:27:42;;;;;;;1.27;1.17;;;22.50;99.90;24.70;101985.00;;;;5069290;28;20236;-71
2023/05/28 17:30:46;;;;;;;6.22;1.85;;;22.30;99.90;24.70;101978.00;;;;5067390;28;20177;-71
2023/05/28 17:33:19;;;;;;;2.28;2.08;;;22.20;99.90;24.40;101992.00;;;;5055657;28;20248;-71
2023/05/28 17:35:45;;;;;;;1.70;0.93;;;22.10;99.90;24.80;101935.00;;;;5056003;28;20186;-71
2023/05/28 17:38:11;;;;;;;1.83;1.42;;;22.10;99.90;24.70;101990.00;;;;5072725;28;20663;-71
2023/05/28 17:40:38;;;;;;;1.67;1.42;;;22.00;99.90;24.20;101994.00;;;;5072293;28;20227;-71
2023/05/28 17:43:06;;;;;;;2.42;1.88;;;22.00;99.90;24.00;101993.00;;;;5072161;28;20706;-71
2023/05/28 17:45:42;;;;;;;0.77;0.50;;;21.90;99.90;25.00;101975.00;;;;5072001;28;20664;-71
2023/05/28 17:48:08;;;;;;;1.00;0.63;;;22.10;99.90;24.50;101987.00;;;;5055955;28;20547;-71
2023/05/28 17:50:34;;;;;;;1.90;1.50;;;22.00;99.90;24.60;101985.00;;;;5072224;28;20185;-71
2023/05/28 17:53:00;;;;;;;7.13;4.68;;;22.10;99.90;23.80;102002.00;;;;5071995;28;20217;-71
2023/05/28 17:55:26;;;;;;;0.98;0.82;;;21.80;99.90;24.60;101954.00;;;;5072061;28;20272;-71
2023/05/28 17:57:52;;;;;;;1.10;1.00;;;21.80;99.90;24.60;101970.00;;;;5069111;28;20193;-71
2023/05/28 18:00:18;;;;;;;2.83;1.45;;;21.90;99.90;24.10;101988.00;;;;5085840;28;20235;-71
2023/05/28 18:02:45;;;;;;;1.02;0.75;;;21.80;99.90;24.50;101958.00;;;;5072103;28;20551;-71
2023/05/28 18:05:22;;;;;;;1.85;1.50;;;21.80;99.90;24.20;101988.00;;;;5072321;28;20177;-71
2023/05/28 18:07:53;;;;;;;2.05;1.73;;;21.80;99.90;24.40;101979.00;;;;5073294;28;20185;-71
2023/05/28 18:10:21;;;;;;;1.75;1.10;;;21.70;99.90;23.80;102009.00;;;;5072104;28;20185;-71
2023/05/28 18:13:08;;;;;;;0.68;0.68;;;21.50;99.90;24.50;101995.00;;;;5055379;28;20196;-71
2023/05/28 18:15:41;;;;;;;3.72;2.22;;;21.50;99.90;23.90;102004.00;;;;5068701;28;20182;-71
2023/05/28 18:18:35;;;;;;;2.50;1.13;;;21.50;99.90;24.00;101954.00;;;;5071829;28;20189;-71
2023/05/28 18:21:22;;;;;;;2.17;1.55;;;21.30;99.90;23.40;102033.00;;;;5080323;28;20264;-71
2023/05/28 18:23:52;;;;;;;1.65;1.55;;;21.30;99.90;23.30;101998.00;;;;5066642;28;20593;-70